<?xml version="1.0" encoding="UTF-8" standalone="no" ?>
<gpx xmlns="http://www.topografix.com/GPX/1/1" xmlns:xsi="http://www.w3.org/2001/XMLSchema-instance" xsi:schemaLocation="http://www.topografix.com/GPX/1/1 http://www.topografix.com/GPX/1/1/gpx.xsd" version="1.1" creator="VisuGPX - https://www.visugpx.com">
  <metadata>
    <name>ski de rando ballon d\'alsace</name>
    <desc><![CDATA[ski de rando au ballon d\'alsace]]></desc>
  </metadata>
  <trk>
    <name><![CDATA[ACTIVE LOG 004]]></name>
    <trkseg>
      <trkpt lat="47.80974" lon="6.84567">
        <ele>1165.2553711</ele>
        <time>2012-02-12T07:47:54Z</time>
      </trkpt>
      <trkpt lat="47.81018" lon="6.84556">
        <ele>1165.736084</ele>
        <time>2012-02-12T07:48:16Z</time>
      </trkpt>
      <trkpt lat="47.81008" lon="6.84562">
        <ele>1165.736084</ele>
        <time>2012-02-12T07:49:19Z</time>
      </trkpt>
      <trkpt lat="47.81017" lon="6.84626">
        <ele>1165.736084</ele>
        <time>2012-02-12T07:50:15Z</time>
      </trkpt>
      <trkpt lat="47.81035" lon="6.84637">
        <ele>1169.5812988</ele>
        <time>2012-02-12T07:50:57Z</time>
      </trkpt>
      <trkpt lat="47.81053" lon="6.84655">
        <ele>1170.0617676</ele>
        <time>2012-02-12T07:51:24Z</time>
      </trkpt>
      <trkpt lat="47.81064" lon="6.84653">
        <ele>1166.2165527</ele>
        <time>2012-02-12T07:51:41Z</time>
      </trkpt>
      <trkpt lat="47.81191" lon="6.84642">
        <ele>1037.3999023</ele>
        <time>2012-02-12T07:56:09Z</time>
      </trkpt>
      <trkpt lat="47.81191" lon="6.84753">
        <ele>1011.9250488</ele>
        <time>2012-02-12T07:57:48Z</time>
      </trkpt>
      <trkpt lat="47.81225" lon="6.84744">
        <ele>1003.7536621</ele>
        <time>2012-02-12T07:58:21Z</time>
      </trkpt>
      <trkpt lat="47.81217" lon="6.84794">
        <ele>992.2180176</ele>
        <time>2012-02-12T07:58:54Z</time>
      </trkpt>
      <trkpt lat="47.81231" lon="6.84831">
        <ele>989.8146973</ele>
        <time>2012-02-12T07:59:08Z</time>
      </trkpt>
      <trkpt lat="47.81251" lon="6.84841">
        <ele>986.4499512</ele>
        <time>2012-02-12T07:59:22Z</time>
      </trkpt>
      <trkpt lat="47.81256" lon="6.84845">
        <ele>983.565918</ele>
        <time>2012-02-12T07:59:32Z</time>
      </trkpt>
      <trkpt lat="47.81256" lon="6.8485">
        <ele>978.7595215</ele>
        <time>2012-02-12T07:59:36Z</time>
      </trkpt>
      <trkpt lat="47.81272" lon="6.84854">
        <ele>972.0302734</ele>
        <time>2012-02-12T07:59:42Z</time>
      </trkpt>
      <trkpt lat="47.81275" lon="6.84858">
        <ele>967.7041016</ele>
        <time>2012-02-12T07:59:45Z</time>
      </trkpt>
      <trkpt lat="47.81288" lon="6.84856">
        <ele>961.9365234</ele>
        <time>2012-02-12T07:59:52Z</time>
      </trkpt>
      <trkpt lat="47.81297" lon="6.84833">
        <ele>959.5332031</ele>
        <time>2012-02-12T08:00:00Z</time>
      </trkpt>
      <trkpt lat="47.81377" lon="6.8488">
        <ele>939.3452148</ele>
        <time>2012-02-12T08:00:28Z</time>
      </trkpt>
      <trkpt lat="47.81406" lon="6.8489">
        <ele>922.0415039</ele>
        <time>2012-02-12T08:01:00Z</time>
      </trkpt>
      <trkpt lat="47.81407" lon="6.84903">
        <ele>916.2736816</ele>
        <time>2012-02-12T08:01:07Z</time>
      </trkpt>
      <trkpt lat="47.81421" lon="6.84886">
        <ele>907.6218262</ele>
        <time>2012-02-12T08:01:18Z</time>
      </trkpt>
      <trkpt lat="47.81441" lon="6.84882">
        <ele>895.6054688</ele>
        <time>2012-02-12T08:01:30Z</time>
      </trkpt>
      <trkpt lat="47.81442" lon="6.84897">
        <ele>891.7600098</ele>
        <time>2012-02-12T08:01:34Z</time>
      </trkpt>
      <trkpt lat="47.81456" lon="6.849">
        <ele>884.0695801</ele>
        <time>2012-02-12T08:01:48Z</time>
      </trkpt>
      <trkpt lat="47.81449" lon="6.84931">
        <ele>876.3791504</ele>
        <time>2012-02-12T08:02:00Z</time>
      </trkpt>
      <trkpt lat="47.81475" lon="6.84934">
        <ele>864.8432617</ele>
        <time>2012-02-12T08:02:30Z</time>
      </trkpt>
      <trkpt lat="47.81476" lon="6.84961">
        <ele>857.1525879</ele>
        <time>2012-02-12T08:02:55Z</time>
      </trkpt>
      <trkpt lat="47.81531" lon="6.84944">
        <ele>847.0588379</ele>
        <time>2012-02-12T08:03:40Z</time>
      </trkpt>
      <trkpt lat="47.81569" lon="6.84966">
        <ele>838.8876953</ele>
        <time>2012-02-12T08:04:04Z</time>
      </trkpt>
      <trkpt lat="47.81559" lon="6.84948">
        <ele>837.4455566</ele>
        <time>2012-02-12T08:04:06Z</time>
      </trkpt>
      <trkpt lat="47.81588" lon="6.84942">
        <ele>840.8100586</ele>
        <time>2012-02-12T08:07:07Z</time>
      </trkpt>
      <trkpt lat="47.81591" lon="6.84941">
        <ele>836.9648438</ele>
        <time>2012-02-12T08:07:10Z</time>
      </trkpt>
      <trkpt lat="47.81618" lon="6.85037">
        <ele>843.2133789</ele>
        <time>2012-02-12T08:08:20Z</time>
      </trkpt>
      <trkpt lat="47.81632" lon="6.85087">
        <ele>841.2907715</ele>
        <time>2012-02-12T08:08:58Z</time>
      </trkpt>
      <trkpt lat="47.81729" lon="6.85201">
        <ele>834.5617676</ele>
        <time>2012-02-12T08:11:36Z</time>
      </trkpt>
      <trkpt lat="47.81758" lon="6.85193">
        <ele>836.9648438</ele>
        <time>2012-02-12T08:13:03Z</time>
      </trkpt>
      <trkpt lat="47.81782" lon="6.85168">
        <ele>836.0036621</ele>
        <time>2012-02-12T08:13:57Z</time>
      </trkpt>
      <trkpt lat="47.81755" lon="6.85204">
        <ele>836.9648438</ele>
        <time>2012-02-12T08:14:34Z</time>
      </trkpt>
      <trkpt lat="47.81732" lon="6.85193">
        <ele>836.9648438</ele>
        <time>2012-02-12T08:15:25Z</time>
      </trkpt>
      <trkpt lat="47.81758" lon="6.85202">
        <ele>838.4069824</ele>
        <time>2012-02-12T08:15:59Z</time>
      </trkpt>
      <trkpt lat="47.81769" lon="6.85174">
        <ele>838.4069824</ele>
        <time>2012-02-12T08:16:18Z</time>
      </trkpt>
      <trkpt lat="47.81782" lon="6.8517">
        <ele>837.4455566</ele>
        <time>2012-02-12T08:16:34Z</time>
      </trkpt>
      <trkpt lat="47.81817" lon="6.85065">
        <ele>835.5229492</ele>
        <time>2012-02-12T08:17:41Z</time>
      </trkpt>
      <trkpt lat="47.81829" lon="6.85061">
        <ele>836.0036621</ele>
        <time>2012-02-12T08:17:56Z</time>
      </trkpt>
      <trkpt lat="47.81914" lon="6.85115">
        <ele>848.0202637</ele>
        <time>2012-02-12T08:19:48Z</time>
      </trkpt>
      <trkpt lat="47.81954" lon="6.85123">
        <ele>850.423584</ele>
        <time>2012-02-12T08:20:32Z</time>
      </trkpt>
      <trkpt lat="47.81952" lon="6.85162">
        <ele>849.4621582</ele>
        <time>2012-02-12T08:21:00Z</time>
      </trkpt>
      <trkpt lat="47.81973" lon="6.85183">
        <ele>857.6333008</ele>
        <time>2012-02-12T08:22:07Z</time>
      </trkpt>
      <trkpt lat="47.81964" lon="6.85222">
        <ele>863.8818359</ele>
        <time>2012-02-12T08:22:57Z</time>
      </trkpt>
      <trkpt lat="47.81979" lon="6.85228">
        <ele>870.1303711</ele>
        <time>2012-02-12T08:23:37Z</time>
      </trkpt>
      <trkpt lat="47.81979" lon="6.85235">
        <ele>873.4951172</ele>
        <time>2012-02-12T08:23:58Z</time>
      </trkpt>
      <trkpt lat="47.81971" lon="6.8526">
        <ele>877.3405762</ele>
        <time>2012-02-12T08:24:44Z</time>
      </trkpt>
      <trkpt lat="47.81964" lon="6.85265">
        <ele>879.2629395</ele>
        <time>2012-02-12T08:24:58Z</time>
      </trkpt>
      <trkpt lat="47.81957" lon="6.85279">
        <ele>880.7050781</ele>
        <time>2012-02-12T08:25:26Z</time>
      </trkpt>
      <trkpt lat="47.81998" lon="6.85267">
        <ele>893.2021484</ele>
        <time>2012-02-12T08:27:07Z</time>
      </trkpt>
      <trkpt lat="47.82027" lon="6.8522">
        <ele>905.2185059</ele>
        <time>2012-02-12T08:29:08Z</time>
      </trkpt>
      <trkpt lat="47.82032" lon="6.85233">
        <ele>911.4672852</ele>
        <time>2012-02-12T08:29:48Z</time>
      </trkpt>
      <trkpt lat="47.82034" lon="6.85249">
        <ele>914.8317871</ele>
        <time>2012-02-12T08:30:09Z</time>
      </trkpt>
      <trkpt lat="47.82062" lon="6.85286">
        <ele>923.9641113</ele>
        <time>2012-02-12T08:31:22Z</time>
      </trkpt>
      <trkpt lat="47.82065" lon="6.85311">
        <ele>930.2128906</ele>
        <time>2012-02-12T08:32:10Z</time>
      </trkpt>
      <trkpt lat="47.82077" lon="6.85312">
        <ele>933.5773926</ele>
        <time>2012-02-12T08:32:33Z</time>
      </trkpt>
      <trkpt lat="47.82096" lon="6.85262">
        <ele>956.168457</ele>
        <time>2012-02-12T08:35:15Z</time>
      </trkpt>
      <trkpt lat="47.82143" lon="6.85266">
        <ele>972.9916992</ele>
        <time>2012-02-12T08:38:04Z</time>
      </trkpt>
      <trkpt lat="47.82146" lon="6.85313">
        <ele>979.7207031</ele>
        <time>2012-02-12T08:39:06Z</time>
      </trkpt>
      <trkpt lat="47.82128" lon="6.85311">
        <ele>977.317627</ele>
        <time>2012-02-12T08:48:13Z</time>
      </trkpt>
      <trkpt lat="47.82129" lon="6.85319">
        <ele>977.317627</ele>
        <time>2012-02-12T08:48:55Z</time>
      </trkpt>
      <trkpt lat="47.82157" lon="6.8527">
        <ele>988.3728027</ele>
        <time>2012-02-12T08:50:40Z</time>
      </trkpt>
      <trkpt lat="47.8218" lon="6.85261">
        <ele>997.9858398</ele>
        <time>2012-02-12T08:51:32Z</time>
      </trkpt>
      <trkpt lat="47.82181" lon="6.85289">
        <ele>999.9084473</ele>
        <time>2012-02-12T08:51:51Z</time>
      </trkpt>
      <trkpt lat="47.82191" lon="6.85269">
        <ele>1005.1958008</ele>
        <time>2012-02-12T08:52:25Z</time>
      </trkpt>
      <trkpt lat="47.82193" lon="6.85311">
        <ele>1014.8088379</ele>
        <time>2012-02-12T08:53:19Z</time>
      </trkpt>
      <trkpt lat="47.82219" lon="6.8529">
        <ele>1025.8640137</ele>
        <time>2012-02-12T08:54:23Z</time>
      </trkpt>
      <trkpt lat="47.82226" lon="6.85315">
        <ele>1032.1125488</ele>
        <time>2012-02-12T08:55:06Z</time>
      </trkpt>
      <trkpt lat="47.82245" lon="6.85295">
        <ele>1041.7258301</ele>
        <time>2012-02-12T08:55:59Z</time>
      </trkpt>
      <trkpt lat="47.82262" lon="6.85288">
        <ele>1047.4936523</ele>
        <time>2012-02-12T08:56:35Z</time>
      </trkpt>
      <trkpt lat="47.82284" lon="6.85294">
        <ele>1054.2231445</ele>
        <time>2012-02-12T08:57:15Z</time>
      </trkpt>
      <trkpt lat="47.82286" lon="6.85329">
        <ele>1063.8359375</ele>
        <time>2012-02-12T08:58:03Z</time>
      </trkpt>
      <trkpt lat="47.82312" lon="6.85309">
        <ele>1072.4880371</ele>
        <time>2012-02-12T08:58:56Z</time>
      </trkpt>
      <trkpt lat="47.82336" lon="6.85324">
        <ele>1088.3498535</ele>
        <time>2012-02-12T09:00:17Z</time>
      </trkpt>
      <trkpt lat="47.82348" lon="6.85332">
        <ele>1091.7143555</ele>
        <time>2012-02-12T09:00:32Z</time>
      </trkpt>
      <trkpt lat="47.8237" lon="6.85307">
        <ele>1094.5981445</ele>
        <time>2012-02-12T09:01:07Z</time>
      </trkpt>
      <trkpt lat="47.82369" lon="6.85198">
        <ele>1103.730957</ele>
        <time>2012-02-12T09:02:44Z</time>
      </trkpt>
      <trkpt lat="47.82374" lon="6.85123">
        <ele>1108.5373535</ele>
        <time>2012-02-12T09:03:52Z</time>
      </trkpt>
      <trkpt lat="47.82395" lon="6.85087">
        <ele>1117.6699219</ele>
        <time>2012-02-12T09:04:45Z</time>
      </trkpt>
      <trkpt lat="47.82398" lon="6.85054">
        <ele>1121.034668</ele>
        <time>2012-02-12T09:05:39Z</time>
      </trkpt>
      <trkpt lat="47.82435" lon="6.85066">
        <ele>1131.128418</ele>
        <time>2012-02-12T09:06:30Z</time>
      </trkpt>
      <trkpt lat="47.82432" lon="6.8504">
        <ele>1137.3769531</ele>
        <time>2012-02-12T09:07:05Z</time>
      </trkpt>
      <trkpt lat="47.82454" lon="6.85041">
        <ele>1143.6254883</ele>
        <time>2012-02-12T09:07:42Z</time>
      </trkpt>
      <trkpt lat="47.82468" lon="6.85014">
        <ele>1149.3935547</ele>
        <time>2012-02-12T09:08:25Z</time>
      </trkpt>
      <trkpt lat="47.82439" lon="6.84982">
        <ele>1159.0065918</ele>
        <time>2012-02-12T09:09:33Z</time>
      </trkpt>
      <trkpt lat="47.82403" lon="6.84904">
        <ele>1165.736084</ele>
        <time>2012-02-12T09:11:00Z</time>
      </trkpt>
      <trkpt lat="47.82393" lon="6.84895">
        <ele>1165.736084</ele>
        <time>2012-02-12T09:11:15Z</time>
      </trkpt>
      <trkpt lat="47.82356" lon="6.84802">
        <ele>1179.1940918</ele>
        <time>2012-02-12T09:13:25Z</time>
      </trkpt>
      <trkpt lat="47.82327" lon="6.8479">
        <ele>1191.6914063</ele>
        <time>2012-02-12T09:14:35Z</time>
      </trkpt>
      <trkpt lat="47.82327" lon="6.84735">
        <ele>1205.6306152</ele>
        <time>2012-02-12T09:16:05Z</time>
      </trkpt>
      <trkpt lat="47.82308" lon="6.84735">
        <ele>1213.3212891</ele>
        <time>2012-02-12T09:17:03Z</time>
      </trkpt>
      <trkpt lat="47.82315" lon="6.84716">
        <ele>1219.0891113</ele>
        <time>2012-02-12T09:17:53Z</time>
      </trkpt>
      <trkpt lat="47.82283" lon="6.84695">
        <ele>1244.0834961</ele>
        <time>2012-02-12T09:22:19Z</time>
      </trkpt>
      <trkpt lat="47.82276" lon="6.84695">
        <ele>1246.0061035</ele>
        <time>2012-02-12T09:22:39Z</time>
      </trkpt>
      <trkpt lat="47.82267" lon="6.84691">
        <ele>1247.9287109</ele>
        <time>2012-02-12T09:23:00Z</time>
      </trkpt>
      <trkpt lat="47.82241" lon="6.84641">
        <ele>1254.1772461</ele>
        <time>2012-02-12T09:25:16Z</time>
      </trkpt>
      <trkpt lat="47.82213" lon="6.84604">
        <ele>1245.5253906</ele>
        <time>2012-02-12T09:28:26Z</time>
      </trkpt>
      <trkpt lat="47.82202" lon="6.84595">
        <ele>1240.7185059</ele>
        <time>2012-02-12T09:30:17Z</time>
      </trkpt>
      <trkpt lat="47.82196" lon="6.84578">
        <ele>1233.989502</ele>
        <time>2012-02-12T09:30:25Z</time>
      </trkpt>
      <trkpt lat="47.82191" lon="6.84573">
        <ele>1232.5476074</ele>
        <time>2012-02-12T09:30:28Z</time>
      </trkpt>
      <trkpt lat="47.82177" lon="6.84568">
        <ele>1221.4921875</ele>
        <time>2012-02-12T09:30:38Z</time>
      </trkpt>
      <trkpt lat="47.82085" lon="6.84603">
        <ele>1154.6806641</ele>
        <time>2012-02-12T09:32:30Z</time>
      </trkpt>
      <trkpt lat="47.82082" lon="6.84598">
        <ele>1153.2387695</ele>
        <time>2012-02-12T09:32:32Z</time>
      </trkpt>
      <trkpt lat="47.82085" lon="6.8462">
        <ele>1147.951416</ele>
        <time>2012-02-12T09:32:44Z</time>
      </trkpt>
      <trkpt lat="47.82056" lon="6.84612">
        <ele>1131.6088867</ele>
        <time>2012-02-12T09:33:14Z</time>
      </trkpt>
      <trkpt lat="47.82056" lon="6.8463">
        <ele>1125.8410645</ele>
        <time>2012-02-12T09:33:26Z</time>
      </trkpt>
      <trkpt lat="47.82045" lon="6.84619">
        <ele>1121.5151367</ele>
        <time>2012-02-12T09:33:32Z</time>
      </trkpt>
      <trkpt lat="47.82002" lon="6.84648">
        <ele>1098.4433594</ele>
        <time>2012-02-12T09:34:09Z</time>
      </trkpt>
      <trkpt lat="47.81995" lon="6.84668">
        <ele>1095.5595703</ele>
        <time>2012-02-12T09:34:12Z</time>
      </trkpt>
      <trkpt lat="47.81988" lon="6.84698">
        <ele>1084.9853516</ele>
        <time>2012-02-12T09:34:41Z</time>
      </trkpt>
      <trkpt lat="47.82003" lon="6.8468">
        <ele>1086.4272461</ele>
        <time>2012-02-12T09:35:41Z</time>
      </trkpt>
      <trkpt lat="47.81989" lon="6.8467">
        <ele>1099.4047852</ele>
        <time>2012-02-12T09:41:13Z</time>
      </trkpt>
      <trkpt lat="47.81989" lon="6.84659">
        <ele>1096.0402832</ele>
        <time>2012-02-12T09:42:07Z</time>
      </trkpt>
      <trkpt lat="47.82038" lon="6.8462">
        <ele>1110.9406738</ele>
        <time>2012-02-12T09:44:16Z</time>
      </trkpt>
      <trkpt lat="47.8205" lon="6.84578">
        <ele>1126.8024902</ele>
        <time>2012-02-12T09:45:44Z</time>
      </trkpt>
      <trkpt lat="47.82095" lon="6.846">
        <ele>1152.2773438</ele>
        <time>2012-02-12T09:48:33Z</time>
      </trkpt>
      <trkpt lat="47.82103" lon="6.84572">
        <ele>1163.3325195</ele>
        <time>2012-02-12T09:49:48Z</time>
      </trkpt>
      <trkpt lat="47.82138" lon="6.84565">
        <ele>1203.7080078</ele>
        <time>2012-02-12T09:53:54Z</time>
      </trkpt>
      <trkpt lat="47.82162" lon="6.84561">
        <ele>1222.4536133</ele>
        <time>2012-02-12T09:56:01Z</time>
      </trkpt>
      <trkpt lat="47.82185" lon="6.84563">
        <ele>1235.4313965</ele>
        <time>2012-02-12T09:57:13Z</time>
      </trkpt>
      <trkpt lat="47.82199" lon="6.84591">
        <ele>1246.0061035</ele>
        <time>2012-02-12T09:58:03Z</time>
      </trkpt>
      <trkpt lat="47.82207" lon="6.84593">
        <ele>1247.9287109</ele>
        <time>2012-02-12T09:58:21Z</time>
      </trkpt>
      <trkpt lat="47.82224" lon="6.84505">
        <ele>1280.6135254</ele>
        <time>2012-02-12T10:03:14Z</time>
      </trkpt>
      <trkpt lat="47.82151" lon="6.84435">
        <ele>1250.3320313</ele>
        <time>2012-02-12T10:04:22Z</time>
      </trkpt>
      <trkpt lat="47.82169" lon="6.84392">
        <ele>1247.447998</ele>
        <time>2012-02-12T10:05:44Z</time>
      </trkpt>
      <trkpt lat="47.82139" lon="6.84352">
        <ele>1246.9672852</ele>
        <time>2012-02-12T10:05:45Z</time>
      </trkpt>
      <trkpt lat="47.82146" lon="6.84339">
        <ele>1245.5253906</ele>
        <time>2012-02-12T10:05:48Z</time>
      </trkpt>
      <trkpt lat="47.82228" lon="6.84368">
        <ele>1242.1606445</ele>
        <time>2012-02-12T10:06:01Z</time>
      </trkpt>
      <trkpt lat="47.82231" lon="6.84357">
        <ele>1240.2380371</ele>
        <time>2012-02-12T10:06:06Z</time>
      </trkpt>
      <trkpt lat="47.82213" lon="6.8424">
        <ele>1223.8955078</ele>
        <time>2012-02-12T10:06:18Z</time>
      </trkpt>
      <trkpt lat="47.82175" lon="6.8419">
        <ele>1212.8405762</ele>
        <time>2012-02-12T10:06:24Z</time>
      </trkpt>
      <trkpt lat="47.82136" lon="6.84236">
        <ele>1208.5144043</ele>
        <time>2012-02-12T10:06:27Z</time>
      </trkpt>
      <trkpt lat="47.82113" lon="6.84144">
        <ele>1200.8239746</ele>
        <time>2012-02-12T10:06:31Z</time>
      </trkpt>
      <trkpt lat="47.82012" lon="6.84122">
        <ele>1180.1557617</ele>
        <time>2012-02-12T10:06:40Z</time>
      </trkpt>
      <trkpt lat="47.81937" lon="6.84152">
        <ele>1175.8295898</ele>
        <time>2012-02-12T10:06:43Z</time>
      </trkpt>
      <trkpt lat="47.81965" lon="6.84146">
        <ele>1172.4650879</ele>
        <time>2012-02-12T10:06:53Z</time>
      </trkpt>
      <trkpt lat="47.81933" lon="6.84157">
        <ele>1172.4650879</ele>
        <time>2012-02-12T10:06:57Z</time>
      </trkpt>
      <trkpt lat="47.81892" lon="6.84177">
        <ele>1164.2939453</ele>
        <time>2012-02-12T10:07:03Z</time>
      </trkpt>
      <trkpt lat="47.81672" lon="6.84242">
        <ele>1140.7414551</ele>
        <time>2012-02-12T10:07:32Z</time>
      </trkpt>
      <trkpt lat="47.81318" lon="6.84289">
        <ele>1148.4321289</ele>
        <time>2012-02-12T10:10:48Z</time>
      </trkpt>
      <trkpt lat="47.81284" lon="6.84259">
        <ele>1150.3549805</ele>
        <time>2012-02-12T10:11:12Z</time>
      </trkpt>
      <trkpt lat="47.81256" lon="6.84279">
        <ele>1166.6972656</ele>
        <time>2012-02-12T10:12:49Z</time>
      </trkpt>
      <trkpt lat="47.81206" lon="6.84354">
        <ele>1149.3935547</ele>
        <time>2012-02-12T10:13:15Z</time>
      </trkpt>
      <trkpt lat="47.81206" lon="6.8438">
        <ele>1147.951416</ele>
        <time>2012-02-12T10:13:19Z</time>
      </trkpt>
      <trkpt lat="47.81193" lon="6.84391">
        <ele>1147.4707031</ele>
        <time>2012-02-12T10:13:23Z</time>
      </trkpt>
      <trkpt lat="47.8115" lon="6.84454">
        <ele>1132.5705566</ele>
        <time>2012-02-12T10:13:33Z</time>
      </trkpt>
      <trkpt lat="47.81093" lon="6.84553">
        <ele>1102.2888184</ele>
        <time>2012-02-12T10:13:51Z</time>
      </trkpt>
      <trkpt lat="47.81066" lon="6.84676">
        <ele>1089.3110352</ele>
        <time>2012-02-12T10:14:35Z</time>
      </trkpt>
      <trkpt lat="47.81059" lon="6.84667">
        <ele>1087.3884277</ele>
        <time>2012-02-12T10:14:55Z</time>
      </trkpt>
      <trkpt lat="47.81052" lon="6.84773">
        <ele>1084.9853516</ele>
        <time>2012-02-12T10:15:07Z</time>
      </trkpt>
      <trkpt lat="47.81041" lon="6.84793">
        <ele>1080.6591797</ele>
        <time>2012-02-12T10:15:19Z</time>
      </trkpt>
      <trkpt lat="47.8106" lon="6.84854">
        <ele>1055.1843262</ele>
        <time>2012-02-12T10:15:50Z</time>
      </trkpt>
      <trkpt lat="47.81066" lon="6.84894">
        <ele>1035.4770508</ele>
        <time>2012-02-12T10:16:06Z</time>
      </trkpt>
      <trkpt lat="47.81053" lon="6.84909">
        <ele>1032.1125488</ele>
        <time>2012-02-12T10:16:15Z</time>
      </trkpt>
      <trkpt lat="47.81047" lon="6.84932">
        <ele>1023.9414063</ele>
        <time>2012-02-12T10:16:23Z</time>
      </trkpt>
      <trkpt lat="47.81045" lon="6.84947">
        <ele>1016.2507324</ele>
        <time>2012-02-12T10:16:28Z</time>
      </trkpt>
      <trkpt lat="47.81068" lon="6.84985">
        <ele>1009.5217285</ele>
        <time>2012-02-12T10:17:11Z</time>
      </trkpt>
      <trkpt lat="47.81086" lon="6.84998">
        <ele>1004.7150879</ele>
        <time>2012-02-12T10:17:27Z</time>
      </trkpt>
      <trkpt lat="47.81113" lon="6.84996">
        <ele>996.5439453</ele>
        <time>2012-02-12T10:17:45Z</time>
      </trkpt>
      <trkpt lat="47.81116" lon="6.85015">
        <ele>994.140625</ele>
        <time>2012-02-12T10:17:53Z</time>
      </trkpt>
      <trkpt lat="47.81162" lon="6.85049">
        <ele>956.168457</ele>
        <time>2012-02-12T10:18:30Z</time>
      </trkpt>
      <trkpt lat="47.81158" lon="6.85086">
        <ele>950.8811035</ele>
        <time>2012-02-12T10:19:13Z</time>
      </trkpt>
      <trkpt lat="47.81159" lon="6.85084">
        <ele>949.9199219</ele>
        <time>2012-02-12T10:20:42Z</time>
      </trkpt>
      <trkpt lat="47.81159" lon="6.85086">
        <ele>948.4777832</ele>
        <time>2012-02-12T10:20:45Z</time>
      </trkpt>
      <trkpt lat="47.81158" lon="6.85066">
        <ele>973.9528809</ele>
        <time>2012-02-12T10:24:14Z</time>
      </trkpt>
      <trkpt lat="47.81157" lon="6.85035">
        <ele>957.6105957</ele>
        <time>2012-02-12T10:24:56Z</time>
      </trkpt>
      <trkpt lat="47.81157" lon="6.85035">
        <ele>961.4558105</ele>
        <time>2012-02-12T10:24:59Z</time>
      </trkpt>
      <trkpt lat="47.81157" lon="6.85035">
        <ele>958.5717773</ele>
        <time>2012-02-12T10:25:01Z</time>
      </trkpt>
      <trkpt lat="47.81153" lon="6.85042">
        <ele>961.4558105</ele>
        <time>2012-02-12T10:25:21Z</time>
      </trkpt>
      <trkpt lat="47.81152" lon="6.85032">
        <ele>967.7041016</ele>
        <time>2012-02-12T10:25:40Z</time>
      </trkpt>
      <trkpt lat="47.81151" lon="6.85025">
        <ele>962.8977051</ele>
        <time>2012-02-12T10:25:47Z</time>
      </trkpt>
      <trkpt lat="47.81151" lon="6.85024">
        <ele>973.9528809</ele>
        <time>2012-02-12T10:25:50Z</time>
      </trkpt>
      <trkpt lat="47.81152" lon="6.85022">
        <ele>966.262207</ele>
        <time>2012-02-12T10:25:53Z</time>
      </trkpt>
      <trkpt lat="47.81152" lon="6.85022">
        <ele>962.8977051</ele>
        <time>2012-02-12T10:25:54Z</time>
      </trkpt>
      <trkpt lat="47.81151" lon="6.8502">
        <ele>968.6655273</ele>
        <time>2012-02-12T10:26:21Z</time>
      </trkpt>
      <trkpt lat="47.81151" lon="6.85009">
        <ele>974.9143066</ele>
        <time>2012-02-12T10:26:36Z</time>
      </trkpt>
      <trkpt lat="47.81151" lon="6.85008">
        <ele>973.9528809</ele>
        <time>2012-02-12T10:26:38Z</time>
      </trkpt>
      <trkpt lat="47.81151" lon="6.85007">
        <ele>968.1848145</ele>
        <time>2012-02-12T10:26:41Z</time>
      </trkpt>
      <trkpt lat="47.81152" lon="6.85006">
        <ele>973.4724121</ele>
        <time>2012-02-12T10:26:42Z</time>
      </trkpt>
      <trkpt lat="47.81153" lon="6.85004">
        <ele>966.7429199</ele>
        <time>2012-02-12T10:26:45Z</time>
      </trkpt>
      <trkpt lat="47.81153" lon="6.85003">
        <ele>973.4724121</ele>
        <time>2012-02-12T10:26:46Z</time>
      </trkpt>
      <trkpt lat="47.81151" lon="6.85">
        <ele>977.7980957</ele>
        <time>2012-02-12T10:26:47Z</time>
      </trkpt>
      <trkpt lat="47.81151" lon="6.84995">
        <ele>974.9143066</ele>
        <time>2012-02-12T10:26:55Z</time>
      </trkpt>
      <trkpt lat="47.81158" lon="6.84986">
        <ele>978.2788086</ele>
        <time>2012-02-12T10:27:15Z</time>
      </trkpt>
      <trkpt lat="47.81139" lon="6.84996">
        <ele>986.4499512</ele>
        <time>2012-02-12T10:28:03Z</time>
      </trkpt>
      <trkpt lat="47.81127" lon="6.84992">
        <ele>993.1791992</ele>
        <time>2012-02-12T10:28:36Z</time>
      </trkpt>
      <trkpt lat="47.81116" lon="6.84983">
        <ele>999.4277344</ele>
        <time>2012-02-12T10:29:13Z</time>
      </trkpt>
      <trkpt lat="47.81114" lon="6.84976">
        <ele>1001.8310547</ele>
        <time>2012-02-12T10:29:32Z</time>
      </trkpt>
      <trkpt lat="47.81102" lon="6.84973">
        <ele>1007.5991211</ele>
        <time>2012-02-12T10:29:55Z</time>
      </trkpt>
      <trkpt lat="47.81084" lon="6.84973">
        <ele>1009.0410156</ele>
        <time>2012-02-12T10:30:26Z</time>
      </trkpt>
      <trkpt lat="47.81088" lon="6.84949">
        <ele>1018.6540527</ele>
        <time>2012-02-12T10:31:07Z</time>
      </trkpt>
      <trkpt lat="47.81084" lon="6.8494">
        <ele>1019.6154785</ele>
        <time>2012-02-12T10:31:24Z</time>
      </trkpt>
      <trkpt lat="47.81111" lon="6.84865">
        <ele>1032.1125488</ele>
        <time>2012-02-12T10:32:45Z</time>
      </trkpt>
      <trkpt lat="47.81078" lon="6.84868">
        <ele>1042.206543</ele>
        <time>2012-02-12T10:33:52Z</time>
      </trkpt>
      <trkpt lat="47.81033" lon="6.84855">
        <ele>1053.2617188</ele>
        <time>2012-02-12T10:34:59Z</time>
      </trkpt>
      <trkpt lat="47.81032" lon="6.84847">
        <ele>1058.5488281</ele>
        <time>2012-02-12T10:35:17Z</time>
      </trkpt>
      <trkpt lat="47.81036" lon="6.84839">
        <ele>1052.7810059</ele>
        <time>2012-02-12T10:35:28Z</time>
      </trkpt>
      <trkpt lat="47.81037" lon="6.84839">
        <ele>1058.0683594</ele>
        <time>2012-02-12T10:35:29Z</time>
      </trkpt>
      <trkpt lat="47.81051" lon="6.84827">
        <ele>1061.4328613</ele>
        <time>2012-02-12T10:35:47Z</time>
      </trkpt>
      <trkpt lat="47.81068" lon="6.84816">
        <ele>1066.2392578</ele>
        <time>2012-02-12T10:36:17Z</time>
      </trkpt>
      <trkpt lat="47.81085" lon="6.84797">
        <ele>1072.0073242</ele>
        <time>2012-02-12T10:37:03Z</time>
      </trkpt>
      <trkpt lat="47.81035" lon="6.84792">
        <ele>1087.3884277</ele>
        <time>2012-02-12T10:38:59Z</time>
      </trkpt>
      <trkpt lat="47.81012" lon="6.84784">
        <ele>1087.3884277</ele>
        <time>2012-02-12T10:39:25Z</time>
      </trkpt>
      <trkpt lat="47.80958" lon="6.84802">
        <ele>1089.3110352</ele>
        <time>2012-02-12T10:40:17Z</time>
      </trkpt>
      <trkpt lat="47.80946" lon="6.84795">
        <ele>1088.3498535</ele>
        <time>2012-02-12T10:40:27Z</time>
      </trkpt>
      <trkpt lat="47.80861" lon="6.84854">
        <ele>1084.5046387</ele>
        <time>2012-02-12T10:41:28Z</time>
      </trkpt>
      <trkpt lat="47.80832" lon="6.84923">
        <ele>1089.791748</ele>
        <time>2012-02-12T10:42:11Z</time>
      </trkpt>
      <trkpt lat="47.80742" lon="6.8504">
        <ele>1115.2666016</ele>
        <time>2012-02-12T10:44:29Z</time>
      </trkpt>
      <trkpt lat="47.807" lon="6.85115">
        <ele>1145.0673828</ele>
        <time>2012-02-12T10:46:28Z</time>
      </trkpt>
      <trkpt lat="47.80653" lon="6.85197">
        <ele>1120.0732422</ele>
        <time>2012-02-12T10:49:42Z</time>
      </trkpt>
      <trkpt lat="47.80653" lon="6.85214">
        <ele>1113.8244629</ele>
        <time>2012-02-12T10:49:48Z</time>
      </trkpt>
      <trkpt lat="47.80704" lon="6.85238">
        <ele>1107.5761719</ele>
        <time>2012-02-12T10:49:55Z</time>
      </trkpt>
      <trkpt lat="47.80705" lon="6.85268">
        <ele>1102.2888184</ele>
        <time>2012-02-12T10:50:03Z</time>
      </trkpt>
      <trkpt lat="47.8072" lon="6.85284">
        <ele>1097.0014648</ele>
        <time>2012-02-12T10:50:12Z</time>
      </trkpt>
      <trkpt lat="47.8075" lon="6.8529">
        <ele>1083.0622559</ele>
        <time>2012-02-12T10:50:29Z</time>
      </trkpt>
      <trkpt lat="47.80773" lon="6.85307">
        <ele>1060.4714355</ele>
        <time>2012-02-12T10:50:56Z</time>
      </trkpt>
      <trkpt lat="47.80778" lon="6.85343">
        <ele>1050.8581543</ele>
        <time>2012-02-12T10:51:07Z</time>
      </trkpt>
      <trkpt lat="47.80784" lon="6.85354">
        <ele>1045.5710449</ele>
        <time>2012-02-12T10:51:12Z</time>
      </trkpt>
      <trkpt lat="47.80785" lon="6.85358">
        <ele>1041.7258301</ele>
        <time>2012-02-12T10:51:13Z</time>
      </trkpt>
      <trkpt lat="47.80804" lon="6.85358">
        <ele>1044.1291504</ele>
        <time>2012-02-12T10:51:29Z</time>
      </trkpt>
      <trkpt lat="47.80818" lon="6.85372">
        <ele>1025.3833008</ele>
        <time>2012-02-12T10:51:43Z</time>
      </trkpt>
      <trkpt lat="47.80832" lon="6.85453">
        <ele>1042.6872559</ele>
        <time>2012-02-12T10:53:31Z</time>
      </trkpt>
      <trkpt lat="47.8085" lon="6.85518">
        <ele>1001.3503418</ele>
        <time>2012-02-12T10:54:37Z</time>
      </trkpt>
      <trkpt lat="47.80903" lon="6.85516">
        <ele>974.4335938</ele>
        <time>2012-02-12T10:54:47Z</time>
      </trkpt>
      <trkpt lat="47.80956" lon="6.85568">
        <ele>969.6269531</ele>
        <time>2012-02-12T10:54:50Z</time>
      </trkpt>
      <trkpt lat="47.80981" lon="6.85553">
        <ele>948.4777832</ele>
        <time>2012-02-12T10:55:11Z</time>
      </trkpt>
      <trkpt lat="47.80977" lon="6.85484">
        <ele>944.1520996</ele>
        <time>2012-02-12T10:55:15Z</time>
      </trkpt>
      <trkpt lat="47.80993" lon="6.85463">
        <ele>933.0966797</ele>
        <time>2012-02-12T10:55:24Z</time>
      </trkpt>
      <trkpt lat="47.81008" lon="6.85462">
        <ele>923.4836426</ele>
        <time>2012-02-12T10:55:30Z</time>
      </trkpt>
      <trkpt lat="47.81014" lon="6.85445">
        <ele>918.1962891</ele>
        <time>2012-02-12T10:55:35Z</time>
      </trkpt>
      <trkpt lat="47.81034" lon="6.85426">
        <ele>902.8151855</ele>
        <time>2012-02-12T10:55:47Z</time>
      </trkpt>
      <trkpt lat="47.81039" lon="6.85407">
        <ele>898.0087891</ele>
        <time>2012-02-12T10:55:52Z</time>
      </trkpt>
      <trkpt lat="47.81066" lon="6.85427">
        <ele>890.3181152</ele>
        <time>2012-02-12T10:56:10Z</time>
      </trkpt>
      <trkpt lat="47.81101" lon="6.8542">
        <ele>873.4951172</ele>
        <time>2012-02-12T10:56:27Z</time>
      </trkpt>
      <trkpt lat="47.81104" lon="6.85409">
        <ele>868.2077637</ele>
        <time>2012-02-12T10:56:34Z</time>
      </trkpt>
      <trkpt lat="47.81124" lon="6.85431">
        <ele>858.5944824</ele>
        <time>2012-02-12T10:56:46Z</time>
      </trkpt>
      <trkpt lat="47.81129" lon="6.85418">
        <ele>854.7492676</ele>
        <time>2012-02-12T10:56:50Z</time>
      </trkpt>
      <trkpt lat="47.81108" lon="6.85401">
        <ele>850.9040527</ele>
        <time>2012-02-12T10:56:54Z</time>
      </trkpt>
      <trkpt lat="47.81153" lon="6.85398">
        <ele>841.7714844</ele>
        <time>2012-02-12T10:57:04Z</time>
      </trkpt>
      <trkpt lat="47.81158" lon="6.85381">
        <ele>838.4069824</ele>
        <time>2012-02-12T10:57:11Z</time>
      </trkpt>
      <trkpt lat="47.81176" lon="6.85372">
        <ele>834.5617676</ele>
        <time>2012-02-12T10:57:14Z</time>
      </trkpt>
      <trkpt lat="47.812" lon="6.85401">
        <ele>825.909668</ele>
        <time>2012-02-12T10:57:25Z</time>
      </trkpt>
      <trkpt lat="47.81194" lon="6.8542">
        <ele>822.545166</ele>
        <time>2012-02-12T10:57:45Z</time>
      </trkpt>
      <trkpt lat="47.81198" lon="6.85392">
        <ele>816.2966309</ele>
        <time>2012-02-12T10:57:59Z</time>
      </trkpt>
      <trkpt lat="47.8122" lon="6.8542">
        <ele>806.2026367</ele>
        <time>2012-02-12T10:58:11Z</time>
      </trkpt>
      <trkpt lat="47.8124" lon="6.85408">
        <ele>802.3574219</ele>
        <time>2012-02-12T10:58:20Z</time>
      </trkpt>
      <trkpt lat="47.81241" lon="6.85398">
        <ele>798.9929199</ele>
        <time>2012-02-12T10:58:23Z</time>
      </trkpt>
      <trkpt lat="47.81241" lon="6.854">
        <ele>794.666748</ele>
        <time>2012-02-12T10:58:27Z</time>
      </trkpt>
      <trkpt lat="47.81241" lon="6.85398">
        <ele>793.7055664</ele>
        <time>2012-02-12T10:58:28Z</time>
      </trkpt>
      <trkpt lat="47.81241" lon="6.85393">
        <ele>793.7055664</ele>
        <time>2012-02-12T10:58:32Z</time>
      </trkpt>
      <trkpt lat="47.81245" lon="6.85409">
        <ele>808.1254883</ele>
        <time>2012-02-12T10:59:32Z</time>
      </trkpt>
      <trkpt lat="47.81245" lon="6.85412">
        <ele>795.1474609</ele>
        <time>2012-02-12T11:00:23Z</time>
      </trkpt>
      <trkpt lat="47.81242" lon="6.854">
        <ele>810.5285645</ele>
        <time>2012-02-12T11:01:54Z</time>
      </trkpt>
      <trkpt lat="47.81242" lon="6.854">
        <ele>796.5898438</ele>
        <time>2012-02-12T11:01:57Z</time>
      </trkpt>
      <trkpt lat="47.81232" lon="6.85401">
        <ele>802.3574219</ele>
        <time>2012-02-12T11:03:09Z</time>
      </trkpt>
      <trkpt lat="47.8122" lon="6.85378">
        <ele>808.1254883</ele>
        <time>2012-02-12T11:03:41Z</time>
      </trkpt>
      <trkpt lat="47.81179" lon="6.85385">
        <ele>830.2358398</ele>
        <time>2012-02-12T11:05:35Z</time>
      </trkpt>
      <trkpt lat="47.81165" lon="6.85361">
        <ele>839.3681641</ele>
        <time>2012-02-12T11:06:12Z</time>
      </trkpt>
      <trkpt lat="47.81147" lon="6.85396">
        <ele>850.423584</ele>
        <time>2012-02-12T11:07:10Z</time>
      </trkpt>
      <trkpt lat="47.81125" lon="6.85381">
        <ele>863.4013672</ele>
        <time>2012-02-12T11:08:09Z</time>
      </trkpt>
      <trkpt lat="47.81112" lon="6.8541">
        <ele>873.9755859</ele>
        <time>2012-02-12T11:09:01Z</time>
      </trkpt>
      <trkpt lat="47.81089" lon="6.85393">
        <ele>884.0695801</ele>
        <time>2012-02-12T11:09:58Z</time>
      </trkpt>
      <trkpt lat="47.81082" lon="6.85407">
        <ele>890.3181152</ele>
        <time>2012-02-12T11:10:34Z</time>
      </trkpt>
      <trkpt lat="47.81023" lon="6.85396">
        <ele>915.3125</ele>
        <time>2012-02-12T11:12:30Z</time>
      </trkpt>
      <trkpt lat="47.81003" lon="6.8544">
        <ele>933.0966797</ele>
        <time>2012-02-12T11:14:05Z</time>
      </trkpt>
      <trkpt lat="47.80995" lon="6.85474">
        <ele>940.7873535</ele>
        <time>2012-02-12T11:14:47Z</time>
      </trkpt>
      <trkpt lat="47.8093" lon="6.85474">
        <ele>967.2236328</ele>
        <time>2012-02-12T11:17:04Z</time>
      </trkpt>
      <trkpt lat="47.80872" lon="6.85518">
        <ele>985.4885254</ele>
        <time>2012-02-12T11:18:48Z</time>
      </trkpt>
      <trkpt lat="47.80831" lon="6.85497">
        <ele>1007.1184082</ele>
        <time>2012-02-12T11:20:26Z</time>
      </trkpt>
      <trkpt lat="47.80826" lon="6.85481">
        <ele>1010.4829102</ele>
        <time>2012-02-12T11:20:43Z</time>
      </trkpt>
      <trkpt lat="47.80814" lon="6.8549">
        <ele>1016.7314453</ele>
        <time>2012-02-12T11:21:16Z</time>
      </trkpt>
      <trkpt lat="47.80798" lon="6.85494">
        <ele>1023.4609375</ele>
        <time>2012-02-12T11:21:51Z</time>
      </trkpt>
      <trkpt lat="47.80786" lon="6.85445">
        <ele>1035.9577637</ele>
        <time>2012-02-12T11:22:57Z</time>
      </trkpt>
      <trkpt lat="47.80761" lon="6.85462">
        <ele>1047.0129395</ele>
        <time>2012-02-12T11:24:02Z</time>
      </trkpt>
      <trkpt lat="47.80752" lon="6.85435">
        <ele>1055.1843262</ele>
        <time>2012-02-12T11:25:03Z</time>
      </trkpt>
      <trkpt lat="47.80742" lon="6.85453">
        <ele>1075.3718262</ele>
        <time>2012-02-12T11:27:21Z</time>
      </trkpt>
      <trkpt lat="47.8072" lon="6.85448">
        <ele>1087.3884277</ele>
        <time>2012-02-12T11:29:27Z</time>
      </trkpt>
      <trkpt lat="47.80705" lon="6.85433">
        <ele>1082.1010742</ele>
        <time>2012-02-12T11:29:56Z</time>
      </trkpt>
      <trkpt lat="47.80682" lon="6.85332">
        <ele>1098.4433594</ele>
        <time>2012-02-12T11:31:28Z</time>
      </trkpt>
      <trkpt lat="47.80693" lon="6.85124">
        <ele>1146.0288086</ele>
        <time>2012-02-12T11:37:06Z</time>
      </trkpt>
      <trkpt lat="47.80724" lon="6.85057">
        <ele>1124.8798828</ele>
        <time>2012-02-12T11:37:27Z</time>
      </trkpt>
      <trkpt lat="47.80845" lon="6.84877">
        <ele>1087.8691406</ele>
        <time>2012-02-12T11:37:44Z</time>
      </trkpt>
      <trkpt lat="47.80942" lon="6.8478">
        <ele>1090.7529297</ele>
        <time>2012-02-12T11:38:10Z</time>
      </trkpt>
      <trkpt lat="47.80974" lon="6.84751">
        <ele>1087.3884277</ele>
        <time>2012-02-12T11:38:24Z</time>
      </trkpt>
      <trkpt lat="47.81007" lon="6.84702">
        <ele>1087.8691406</ele>
        <time>2012-02-12T11:38:40Z</time>
      </trkpt>
      <trkpt lat="47.81037" lon="6.8469">
        <ele>1087.8691406</ele>
        <time>2012-02-12T11:38:53Z</time>
      </trkpt>
      <trkpt lat="47.81024" lon="6.84614">
        <ele>1096.5209961</ele>
        <time>2012-02-12T11:39:38Z</time>
      </trkpt>
      <trkpt lat="47.81024" lon="6.84614">
        <ele>1083.0622559</ele>
        <time>2012-02-12T11:42:40Z</time>
      </trkpt>
    </trkseg>
  </trk>
</gpx>